createdAt,value
2018-09-01T00:05:15.766Z,15.01
2018-09-01T00:11:10.767Z,13.64
2018-09-01T00:17:05.842Z,15.81
2018-09-01T00:23:00.754Z,16.96
2018-09-01T00:28:55.728Z,16.38
2018-09-01T00:34:50.738Z,16.02
2018-09-01T00:40:45.733Z,13.71
2018-09-01T00:46:40.734Z,15.92
2018-09-01T00:52:35.753Z,17.66
2018-09-01T00:58:30.753Z,15.82
2018-09-01T01:04:25.733Z,18.17
2018-09-01T01:10:20.741Z,17.63
2018-09-01T01:16:15.811Z,13.18
2018-09-01T01:22:10.766Z,18.64
2018-09-01T01:28:05.756Z,15.4
2018-09-01T01:34:00.753Z,21.98
2018-09-01T01:39:55.773Z,12.38
2018-09-01T01:45:50.734Z,13.61
2018-09-01T01:51:45.748Z,16.25
2018-09-01T01:57:40.741Z,18.33
2018-09-01T02:03:35.786Z,20.01
2018-09-01T02:09:30.783Z,18.36
2018-09-01T02:15:25.745Z,17.75
2018-09-01T02:21:20.763Z,16.8
2018-09-01T02:27:15.787Z,14.71
2018-09-01T02:33:10.763Z,17.65
2018-09-01T02:39:05.781Z,15.9
2018-09-01T02:45:00.762Z,16.93
2018-09-01T02:50:55.753Z,16.24
2018-09-01T02:56:50.771Z,18.51
2018-09-01T03:02:45.755Z,13.96
2018-09-01T03:08:40.785Z,13.38
2018-09-01T03:14:35.786Z,14.9
2018-09-01T03:20:30.772Z,11.72
2018-09-01T03:26:25.762Z,12.33
2018-09-01T03:32:20.828Z,16.66
2018-09-01T03:38:15.779Z,11.82
2018-09-01T03:44:10.750Z,10.95
2018-09-01T03:50:05.753Z,14.35
2018-09-01T03:56:00.788Z,13.51
2018-09-01T04:01:55.795Z,14.78
2018-09-01T04:07:50.829Z,19.3
2018-09-01T04:13:45.780Z,19.08
2018-09-01T04:19:40.773Z,23.66
2018-09-01T04:25:35.763Z,28.59
2018-09-01T04:31:30.826Z,27.99
2018-09-01T04:37:25.836Z,31.7
2018-09-01T04:43:20.773Z,43.16
2018-09-01T04:49:15.795Z,31.95
2018-09-01T04:55:10.780Z,27.68
2018-09-01T05:01:05.952Z,21.09
2018-09-01T05:07:00.786Z,18.63
2018-09-01T05:12:55.795Z,10.57
2018-09-01T05:18:50.793Z,7.49
2018-09-01T05:24:45.787Z,7.58
2018-09-01T05:30:40.793Z,6.28
2018-09-01T05:36:35.882Z,8.55
2018-09-01T05:42:30.796Z,6.06
2018-09-01T05:48:25.798Z,8.72
2018-09-01T05:54:20.806Z,8.42
2018-09-01T06:00:15.782Z,4.9
2018-09-01T06:06:10.994Z,8.41
2018-09-01T06:12:05.780Z,4.85
2018-09-01T06:18:01.018Z,8.8
2018-09-01T06:23:55.903Z,9.74
2018-09-01T06:29:50.841Z,7.49
2018-09-01T06:35:45.830Z,8.77
2018-09-01T06:41:40.808Z,8.26
2018-09-01T06:47:35.849Z,10.75
2018-09-01T06:53:30.793Z,8.84
2018-09-01T06:59:25.819Z,5.91
2018-09-01T07:05:20.799Z,9.64
2018-09-01T07:11:15.798Z,6.09
2018-09-01T07:17:10.814Z,7.17
2018-09-01T07:23:05.812Z,7.19
2018-09-01T07:29:00.803Z,7.68
2018-09-01T07:34:55.792Z,5.83
2018-09-01T07:40:50.784Z,6.75
2018-09-01T07:46:45.781Z,6.63
2018-09-01T07:52:40.785Z,6.24
2018-09-01T07:58:35.802Z,6.37
2018-09-01T08:04:30.802Z,5.09
2018-09-01T08:10:25.822Z,8.39
2018-09-01T08:16:20.825Z,9.03
2018-09-01T08:22:15.811Z,6.15
2018-09-01T08:28:10.855Z,7.32
2018-09-01T08:34:05.822Z,9.79
2018-09-01T08:40:00.831Z,7.47
2018-09-01T08:45:55.818Z,7.62
2018-09-01T08:51:50.825Z,8.62
2018-09-01T08:57:45.826Z,7.05
2018-09-01T09:03:40.837Z,7
2018-09-01T09:09:35.831Z,8.01
2018-09-01T09:15:30.833Z,8.59
2018-09-01T09:21:25.831Z,6.44
2018-09-01T09:27:20.870Z,10.34
2018-09-01T09:33:15.818Z,9.65
2018-09-01T09:39:10.869Z,6.66
2018-09-01T09:45:05.840Z,11.51
2018-09-01T09:51:00.843Z,11.11
2018-09-01T09:56:55.909Z,8.86
2018-09-01T10:02:50.842Z,9.92
2018-09-01T10:08:45.852Z,8.54
2018-09-01T10:14:40.899Z,8.08
2018-09-01T10:20:35.988Z,8.39
2018-09-01T10:26:30.907Z,10.05
2018-09-01T10:32:25.846Z,10.03
2018-09-01T10:38:20.973Z,9.15
2018-09-01T10:44:15.945Z,12.22
2018-09-01T10:50:10.893Z,11.7
2018-09-01T10:56:05.882Z,8.09
2018-09-01T11:02:00.907Z,9.52
2018-09-01T11:07:55.868Z,8.2
2018-09-01T11:13:50.880Z,10.93
2018-09-01T11:19:45.892Z,9.34
2018-09-01T11:25:40.897Z,9.93
2018-09-01T11:31:35.878Z,8.35
2018-09-01T11:37:30.897Z,11.27
2018-09-01T11:43:25.870Z,10.76
2018-09-01T11:49:20.863Z,9.26
2018-09-01T11:55:15.884Z,11.18
2018-09-01T12:01:10.985Z,6.32
2018-09-01T12:07:05.884Z,10.34
2018-09-01T12:13:00.920Z,11.1
2018-09-01T12:18:55.916Z,6.75
2018-09-01T12:24:50.893Z,7.18
2018-09-01T12:30:45.902Z,5.58
2018-09-01T12:36:40.918Z,6.58
2018-09-01T12:42:35.890Z,6.97
2018-09-01T12:48:30.916Z,9.8
2018-09-01T12:54:25.918Z,8.31
2018-09-01T13:00:20.913Z,5.07
2018-09-01T13:06:15.900Z,12.42
2018-09-01T13:12:10.948Z,6.22
2018-09-01T13:18:05.989Z,5.19
2018-09-01T13:24:00.937Z,5.44
2018-09-01T13:29:55.933Z,8.05
2018-09-01T13:35:50.949Z,6.16
2018-09-01T13:41:45.946Z,4.31
2018-09-01T13:47:40.955Z,5.1
2018-09-01T13:53:35.920Z,6.58
2018-09-01T13:59:30.957Z,5.66
2018-09-01T14:05:26.016Z,5.84
2018-09-01T14:11:20.965Z,6.39
2018-09-01T14:17:15.931Z,8.73
2018-09-01T14:23:10.971Z,6.12
2018-09-01T14:29:05.939Z,8
2018-09-01T14:35:00.965Z,4.43
2018-09-01T14:40:55.946Z,6.17
2018-09-01T14:46:51.034Z,6.24
2018-09-01T14:52:46.005Z,6.36
2018-09-01T14:58:40.943Z,7.51
2018-09-01T15:04:35.965Z,4.83
2018-09-01T15:10:30.964Z,7.51
2018-09-01T15:16:25.962Z,6.03
2018-09-01T15:22:20.989Z,7.43
2018-09-01T15:28:15.969Z,11.6
2018-09-01T15:34:10.984Z,8.3
2018-09-01T15:40:05.989Z,7.49
2018-09-01T15:46:00.958Z,7.93
2018-09-01T15:51:55.966Z,8.67
2018-09-01T15:57:50.983Z,8.12
2018-09-01T16:03:46.006Z,7.54
2018-09-01T16:09:41.007Z,5.97
2018-09-01T16:15:35.982Z,6.83
2018-09-01T16:21:31.055Z,7.55
2018-09-01T16:27:26.022Z,6.07
2018-09-01T16:33:20.980Z,7.46
2018-09-01T16:39:15.984Z,6.79
2018-09-01T16:45:10.986Z,6.45
2018-09-01T16:51:05.986Z,5.67
2018-09-01T16:57:01.001Z,13.5
2018-09-01T17:02:56.020Z,8.07
2018-09-01T17:08:51.026Z,8.5
2018-09-01T17:14:46.003Z,8.13
2018-09-01T17:20:41.012Z,9.54
2018-09-01T17:26:36.029Z,7.01
2018-09-01T17:32:31.046Z,7.9
2018-09-01T17:38:26.010Z,6.09
2018-09-01T17:44:21.100Z,6.81
2018-09-01T17:50:16.031Z,6.49
2018-09-01T17:56:11.013Z,6.89
2018-09-01T18:02:06.073Z,10.51
2018-09-01T18:08:00.997Z,6.64
2018-09-01T18:13:56.035Z,6.1
2018-09-01T18:19:51.021Z,5.31
2018-09-01T18:25:46.086Z,6.95
2018-09-01T18:31:41.054Z,4.82
2018-09-01T18:37:36.082Z,6.13
2018-09-01T18:43:31.031Z,4.9
2018-09-01T18:49:26.052Z,4.74
2018-09-01T18:55:21.259Z,5.79
2018-09-01T19:01:16.062Z,9.04
2018-09-01T19:07:11.124Z,6.2
2018-09-01T19:13:06.066Z,7.83
2018-09-01T19:19:01.064Z,6.5
2018-09-01T19:24:56.031Z,5.4
2018-09-01T19:30:51.056Z,7.28
2018-09-01T19:36:46.065Z,7.83
2018-09-01T19:42:41.048Z,5.87
2018-09-01T19:48:36.088Z,10.09
2018-09-01T19:54:31.158Z,7.67
2018-09-01T20:00:26.051Z,7.76
2018-09-01T20:06:21.046Z,5.74
2018-09-01T20:12:16.061Z,6.45
2018-09-01T20:18:11.117Z,6.5
2018-09-01T20:24:06.104Z,6.35
2018-09-01T20:30:01.077Z,4.34
2018-09-01T20:35:56.064Z,5.9
2018-09-01T20:41:51.120Z,6.54
2018-09-01T20:47:46.049Z,6.57
2018-09-01T20:53:41.171Z,5.05
2018-09-01T20:59:36.056Z,8.93
2018-09-01T21:05:31.052Z,5.86
2018-09-01T21:11:26.060Z,4.5
2018-09-01T21:17:21.072Z,5.74
2018-09-01T21:23:16.055Z,6.39
2018-09-01T21:29:11.070Z,6.54
2018-09-01T21:35:06.087Z,5.39
2018-09-01T21:41:01.067Z,4.93
2018-09-01T21:46:56.068Z,9.18
2018-09-01T21:52:51.047Z,5.88
2018-09-01T21:58:46.052Z,6.22
2018-09-01T22:04:41.078Z,5.01
2018-09-01T22:10:36.073Z,5.78
2018-09-01T22:16:31.140Z,5.6
2018-09-01T22:22:26.060Z,14.09
2018-09-01T22:28:21.078Z,5.39
2018-09-01T22:34:16.070Z,10.53
2018-09-01T22:40:11.147Z,5.55
2018-09-01T22:46:06.058Z,6.53
2018-09-01T22:52:01.079Z,5.1
2018-09-01T22:57:56.050Z,6.61
2018-09-01T23:03:51.077Z,7.87
2018-09-01T23:09:46.055Z,5.35
2018-09-01T23:15:41.104Z,5.38
2018-09-01T23:21:36.069Z,5.2
2018-09-01T23:27:31.086Z,6.43
2018-09-01T23:33:26.204Z,5.74
2018-09-01T23:39:21.073Z,9.1
2018-09-01T23:45:16.074Z,6.99
2018-09-01T23:51:11.117Z,6.29
2018-09-01T23:57:06.083Z,6.13
